createdAt,value
2022-09-07T00:00:32.274Z,24.70
2022-09-07T00:01:11.141Z,22.50
2022-09-07T00:01:44.337Z,26.60
2022-09-07T00:02:17.688Z,21.30
2022-09-07T00:02:51.107Z,25.20
2022-09-07T00:03:24.790Z,25.20
2022-09-07T00:03:58.466Z,24.00
2022-09-07T00:04:32.153Z,23.40
2022-09-07T00:05:06.387Z,23.80
2022-09-07T00:05:47.501Z,26.30
2022-09-07T00:06:20.750Z,30.70
2022-09-07T00:06:53.960Z,32.50
2022-09-07T00:07:27.188Z,22.80
2022-09-07T00:08:00.769Z,24.60
2022-09-07T00:08:34.185Z,26.60
2022-09-07T00:09:07.618Z,23.30
2022-09-07T00:09:41.577Z,26.30
2022-09-07T00:10:14.880Z,26.50
2022-09-07T00:11:00.192Z,22.90
2022-09-07T00:11:33.432Z,26.40
2022-09-07T00:12:06.653Z,24.80
2022-09-07T00:12:40.152Z,30.40
2022-09-07T00:13:13.326Z,23.60
2022-09-07T00:13:49.311Z,22.60
2022-09-07T00:14:22.527Z,25.60
2022-09-07T00:14:55.865Z,27.10
2022-09-07T00:15:29.021Z,24.70
2022-09-07T00:16:29.979Z,25.00
2022-09-07T00:17:03.405Z,26.10
2022-09-07T00:17:37.061Z,29.00
2022-09-07T00:18:10.337Z,23.80
2022-09-07T00:18:46.211Z,25.70
2022-09-07T00:19:20.113Z,23.40
2022-09-07T00:19:53.353Z,26.80
2022-09-07T00:20:26.598Z,24.70
2022-09-07T00:21:05.739Z,27.90
2022-09-07T00:21:39.186Z,26.10
2022-09-07T00:22:12.638Z,24.40
2022-09-07T00:22:46.612Z,23.00
2022-09-07T00:23:19.913Z,25.80
2022-09-07T00:23:54.479Z,25.80
2022-09-07T00:24:27.911Z,24.60
2022-09-07T00:25:01.046Z,31.90
2022-09-07T00:25:40.205Z,24.60
2022-09-07T00:26:16.643Z,22.30
2022-09-07T00:26:49.992Z,20.70
2022-09-07T00:27:23.845Z,24.50
2022-09-07T00:27:57.083Z,24.40
2022-09-07T00:28:31.531Z,22.80
2022-09-07T00:29:05.111Z,25.00
2022-09-07T00:29:38.502Z,29.10
2022-09-07T00:30:11.967Z,30.10
2022-09-07T00:30:45.293Z,22.80
2022-09-07T00:31:21.405Z,27.50
2022-09-07T00:31:54.701Z,26.30
2022-09-07T00:32:28.004Z,24.10
2022-09-07T00:33:01.140Z,25.40
2022-09-07T00:33:34.333Z,27.60
2022-09-07T00:34:07.630Z,22.10
2022-09-07T00:34:41.216Z,23.90
2022-09-07T00:35:14.599Z,21.40
2022-09-07T00:35:47.865Z,24.10
2022-09-07T00:36:23.099Z,24.50
2022-09-07T00:36:56.228Z,20.90
2022-09-07T00:37:29.537Z,24.50
2022-09-07T00:38:02.733Z,25.80
2022-09-07T00:38:36.664Z,20.90
2022-09-07T00:39:10.005Z,22.20
2022-09-07T00:39:43.583Z,22.00
2022-09-07T00:40:16.873Z,25.60
2022-09-07T00:40:50.261Z,22.90
2022-09-07T00:41:24.628Z,22.30
2022-09-07T00:41:57.885Z,21.40
2022-09-07T00:42:31.066Z,22.00
2022-09-07T00:43:06.320Z,20.50
2022-09-07T00:44:19.728Z,21.10
2022-09-07T00:44:55.736Z,21.30
2022-09-07T00:45:29.880Z,18.30
2022-09-07T00:46:05.111Z,21.60
2022-09-07T00:46:38.419Z,25.30
2022-09-07T00:47:21.484Z,24.10
2022-09-07T00:48:03.865Z,21.40
2022-09-07T00:48:55.695Z,19.80
2022-09-07T00:49:29.973Z,21.10
2022-09-07T00:50:09.806Z,20.70
2022-09-07T00:50:56.844Z,25.10
2022-09-07T00:51:39.456Z,24.60
2022-09-07T00:52:14.163Z,23.20
2022-09-07T00:52:53.163Z,21.90
2022-09-07T00:53:33.533Z,22.20
2022-09-07T00:54:12.421Z,23.90
2022-09-07T00:54:49.630Z,17.30
2022-09-07T00:55:23.259Z,25.00
2022-09-07T00:55:58.388Z,23.20
2022-09-07T00:56:35.698Z,22.10
2022-09-07T00:57:09.288Z,25.30
2022-09-07T00:57:48.366Z,23.60
2022-09-07T00:58:22.969Z,23.30
2022-09-07T00:58:56.974Z,26.70
2022-09-07T00:59:37.947Z,24.00
2022-09-07T01:00:12.001Z,22.00
2022-09-07T01:00:46.802Z,20.00
2022-09-07T01:01:20.741Z,23.80
2022-09-07T01:01:54.226Z,22.20
2022-09-07T01:02:28.044Z,27.10
2022-09-07T01:03:03.703Z,23.90
2022-09-07T01:03:42.491Z,25.70
2022-09-07T01:04:17.061Z,25.80
2022-09-07T01:04:54.638Z,21.20
2022-09-07T01:05:45.680Z,25.20
2022-09-07T01:06:23.149Z,18.40
2022-09-07T01:06:57.449Z,21.20
2022-09-07T01:07:31.141Z,22.10
2022-09-07T01:08:05.760Z,19.30
2022-09-07T01:08:39.361Z,20.30
2022-09-07T01:09:18.770Z,19.80
2022-09-07T01:09:52.864Z,20.40
2022-09-07T01:10:31.909Z,23.30
2022-09-07T01:11:05.443Z,19.00
2022-09-07T01:11:39.580Z,18.90
2022-09-07T01:12:13.382Z,18.00
2022-09-07T01:12:46.692Z,20.70
2022-09-07T01:13:19.837Z,21.40
2022-09-07T01:13:54.677Z,19.50
2022-09-07T01:14:41.805Z,20.60
2022-09-07T01:15:15.037Z,19.90
2022-09-07T01:16:12.712Z,20.60
2022-09-07T01:17:01.627Z,19.40
2022-09-07T01:18:04.199Z,18.20
2022-09-07T01:19:01.135Z,17.60
2022-09-07T01:20:12.085Z,17.30
2022-09-07T01:21:26.288Z,17.70
2022-09-07T01:22:36.777Z,22.10
2022-09-07T01:23:33.276Z,17.90
2022-09-07T01:24:28.528Z,18.70
2022-09-07T01:25:22.224Z,20.40
2022-09-07T01:26:30.492Z,17.30
2022-09-07T01:27:35.365Z,19.60
2022-09-07T01:28:25.922Z,21.20
2022-09-07T01:29:08.655Z,20.10
2022-09-07T01:30:08.674Z,24.20
2022-09-07T01:30:51.967Z,19.60
2022-09-07T01:31:45.825Z,18.40
2022-09-07T01:32:51.024Z,20.10
2022-09-07T01:34:05.425Z,21.20
2022-09-07T01:34:39.569Z,15.70
2022-09-07T01:35:29.566Z,15.80
2022-09-07T01:36:21.338Z,17.40
2022-09-07T01:37:13.236Z,15.90
2022-09-07T01:38:21.451Z,18.00
2022-09-07T01:38:59.355Z,19.50
2022-09-07T01:39:47.367Z,19.20
2022-09-07T01:40:41.376Z,21.10
2022-09-07T01:41:20.260Z,17.10
2022-09-07T01:42:01.735Z,21.90
2022-09-07T01:42:45.381Z,17.60
2022-09-07T01:43:45.666Z,17.30
2022-09-07T01:44:27.471Z,21.40
2022-09-07T01:45:03.612Z,20.50
2022-09-07T01:45:41.183Z,15.70
2022-09-07T01:46:23.129Z,21.30
2022-09-07T01:47:07.928Z,20.10
2022-09-07T01:47:48.616Z,19.60
2022-09-07T01:48:23.626Z,17.80
2022-09-07T01:49:05.057Z,16.70
2022-09-07T01:49:40.960Z,22.20
2022-09-07T01:50:38.054Z,18.00
2022-09-07T01:51:13.573Z,20.10
2022-09-07T01:51:50.353Z,18.70
2022-09-07T01:52:35.163Z,17.70
2022-09-07T01:53:22.220Z,20.30
2022-09-07T01:54:01.447Z,23.10
2022-09-07T01:54:55.492Z,20.90
2022-09-07T01:55:40.835Z,17.40
2022-09-07T01:56:42.887Z,24.40
2022-09-07T01:57:22.931Z,17.40
2022-09-07T01:58:09.150Z,21.80
2022-09-07T01:58:49.912Z,22.20
2022-09-07T01:59:28.978Z,18.60
2022-09-07T02:00:14.754Z,18.00
2022-09-07T02:00:55.407Z,33.00
2022-09-07T02:02:19.941Z,17.20
2022-09-07T02:03:00.354Z,19.00
2022-09-07T02:03:45.262Z,16.80
2022-09-07T02:04:28.121Z,19.50
2022-09-07T02:05:10.202Z,18.50
2022-09-07T02:05:58.816Z,17.50
2022-09-07T02:06:38.204Z,20.20
2022-09-07T02:07:25.684Z,14.20
2022-09-07T02:08:05.243Z,19.40
2022-09-07T02:08:46.285Z,17.30
2022-09-07T02:09:38.262Z,19.30
2022-09-07T02:10:17.281Z,19.70
2022-09-07T02:11:02.619Z,19.00
2022-09-07T02:11:45.523Z,19.20
2022-09-07T02:12:35.498Z,18.60
2022-09-07T02:13:40.745Z,20.10
2022-09-07T02:14:30.857Z,19.60
2022-09-07T02:15:20.685Z,19.00
2022-09-07T02:16:00.304Z,20.50
2022-09-07T02:16:37.403Z,22.80
2022-09-07T02:17:34.507Z,18.10
2022-09-07T02:18:10.474Z,19.10
2022-09-07T02:18:50.302Z,22.00
2022-09-07T02:19:27.309Z,19.70
2022-09-07T02:20:15.642Z,18.90
2022-09-07T02:20:53.851Z,18.40
2022-09-07T02:21:34.546Z,19.80
2022-09-07T02:22:14.239Z,17.20
2022-09-07T02:22:53.073Z,20.00
2022-09-07T02:23:31.703Z,17.80
2022-09-07T02:24:11.428Z,19.30
2022-09-07T02:24:51.207Z,23.50
2022-09-07T02:25:33.286Z,20.50
2022-09-07T02:26:14.373Z,17.70
2022-09-07T02:26:53.443Z,22.20
2022-09-07T02:27:39.622Z,20.00
2022-09-07T02:28:22.408Z,18.80
2022-09-07T02:28:56.369Z,22.20
2022-09-07T02:29:31.103Z,18.70
2022-09-07T02:30:06.716Z,20.10
2022-09-07T02:30:40.689Z,18.20
2022-09-07T02:31:15.103Z,20.70
2022-09-07T02:31:49.687Z,16.80
2022-09-07T02:32:23.042Z,18.60
2022-09-07T02:32:56.656Z,18.70
2022-09-07T02:33:30.532Z,20.50
2022-09-07T02:34:04.312Z,19.40
2022-09-07T02:34:37.676Z,18.30
2022-09-07T02:35:11.189Z,28.20
2022-09-07T02:35:44.750Z,20.60
2022-09-07T02:36:20.431Z,17.60
2022-09-07T02:36:54.733Z,20.40
2022-09-07T02:37:29.095Z,21.90
2022-09-07T02:38:04.748Z,23.20
2022-09-07T02:38:38.227Z,19.80
2022-09-07T02:39:11.406Z,25.90
2022-09-07T02:39:44.913Z,19.10
2022-09-07T02:40:18.681Z,17.30
2022-09-07T02:40:53.738Z,21.80
2022-09-07T02:41:30.999Z,16.40
2022-09-07T02:42:04.476Z,22.50
2022-09-07T02:42:39.249Z,21.50
2022-09-07T02:43:12.480Z,18.60
2022-09-07T02:43:46.073Z,20.40
2022-09-07T02:44:28.500Z,16.20
2022-09-07T02:45:05.350Z,18.50
2022-09-07T02:46:19.217Z,21.10
2022-09-07T02:47:07.554Z,17.40
2022-09-07T02:47:50.257Z,20.20
2022-09-07T02:48:47.556Z,19.00
2022-09-07T02:49:29.486Z,18.30
2022-09-07T02:50:34.779Z,19.80
2022-09-07T02:51:18.612Z,20.40
2022-09-07T02:52:13.656Z,20.50
2022-09-07T02:52:58.735Z,16.50
2022-09-07T02:53:48.133Z,15.80
2022-09-07T02:54:40.062Z,15.00
2022-09-07T02:55:39.838Z,20.70
2022-09-07T02:56:18.725Z,19.90
2022-09-07T02:57:19.654Z,21.00
2022-09-07T02:58:14.086Z,19.70
2022-09-07T02:59:07.943Z,19.30
2022-09-07T02:59:59.841Z,18.20
2022-09-07T03:00:38.869Z,18.70
2022-09-07T03:01:47.341Z,17.00
2022-09-07T03:02:30.622Z,21.00
2022-09-07T03:03:22.725Z,20.70
2022-09-07T03:04:14.092Z,20.60
2022-09-07T03:05:06.361Z,20.90
2022-09-07T03:05:51.105Z,16.20
2022-09-07T03:06:41.039Z,18.10
2022-09-07T03:07:22.907Z,23.30
2022-09-07T03:08:18.527Z,17.70
2022-09-07T03:08:55.041Z,20.20
2022-09-07T03:09:32.849Z,18.40
2022-09-07T03:10:07.552Z,18.40
2022-09-07T03:10:41.765Z,16.70
2022-09-07T03:11:15.665Z,16.20
2022-09-07T03:11:49.791Z,18.00
2022-09-07T03:12:23.161Z,16.90
2022-09-07T03:12:56.215Z,16.80
2022-09-07T03:13:30.278Z,16.10
2022-09-07T03:14:18.742Z,16.30
2022-09-07T03:14:51.957Z,14.70
2022-09-07T03:15:27.331Z,15.70
2022-09-07T03:16:00.812Z,16.10
2022-09-07T03:16:34.037Z,15.70
2022-09-07T03:17:08.379Z,16.40
2022-09-07T03:17:42.764Z,13.10
2022-09-07T03:18:15.861Z,16.40
2022-09-07T03:18:49.358Z,19.50
2022-09-07T03:19:22.415Z,17.20
2022-09-07T03:19:55.758Z,17.80
2022-09-07T03:20:28.910Z,18.10
2022-09-07T03:21:01.979Z,18.30
2022-09-07T03:21:36.165Z,19.30
2022-09-07T03:22:09.412Z,16.30
2022-09-07T03:22:42.593Z,17.90
2022-09-07T03:23:15.813Z,19.90
2022-09-07T03:23:51.836Z,21.50
2022-09-07T03:24:25.347Z,17.60
2022-09-07T03:24:58.515Z,16.20
2022-09-07T03:25:31.630Z,20.60
2022-09-07T03:26:05.601Z,16.60
2022-09-07T03:26:42.039Z,16.50
2022-09-07T03:27:15.221Z,18.40
2022-09-07T03:27:48.527Z,25.30
2022-09-07T03:28:21.726Z,17.90
2022-09-07T03:28:54.815Z,15.30
2022-09-07T03:29:27.985Z,19.60
2022-09-07T03:30:01.418Z,20.40
2022-09-07T03:30:34.697Z,19.00
2022-09-07T03:31:07.938Z,17.20
2022-09-07T03:31:41.292Z,17.20
2022-09-07T03:32:14.402Z,22.40
2022-09-07T03:32:47.955Z,18.40
2022-09-07T03:33:21.181Z,21.30
2022-09-07T03:33:55.505Z,19.40
2022-09-07T03:34:28.876Z,17.10
2022-09-07T03:35:03.123Z,18.30
2022-09-07T03:35:36.523Z,17.30
2022-09-07T03:36:09.717Z,17.70
2022-09-07T03:36:43.340Z,21.40
2022-09-07T03:37:16.531Z,18.20
2022-09-07T03:37:49.692Z,20.50
2022-09-07T03:38:22.971Z,16.00
2022-09-07T03:38:56.264Z,15.80
2022-09-07T03:39:29.562Z,15.10
2022-09-07T03:40:04.918Z,22.30
2022-09-07T03:40:38.403Z,15.80
2022-09-07T03:41:12.405Z,16.60
2022-09-07T03:41:45.619Z,18.50
2022-09-07T03:42:19.482Z,18.20
2022-09-07T03:42:52.589Z,19.00
2022-09-07T03:43:26.414Z,19.40
2022-09-07T03:44:05.952Z,16.10
2022-09-07T03:44:39.227Z,17.10
2022-09-07T03:45:12.409Z,21.80
2022-09-07T03:45:45.778Z,18.50
2022-09-07T03:46:19.902Z,18.70
2022-09-07T03:46:53.374Z,16.80
2022-09-07T03:47:26.524Z,15.80
2022-09-07T03:47:59.722Z,18.20
2022-09-07T03:48:35.107Z,16.40
2022-09-07T03:49:08.275Z,18.70
2022-09-07T03:49:41.605Z,19.20
2022-09-07T03:50:14.905Z,16.20
2022-09-07T03:51:02.609Z,18.00
2022-09-07T03:51:35.723Z,20.20
2022-09-07T03:52:09.267Z,20.70
2022-09-07T03:52:42.592Z,18.70
2022-09-07T03:53:15.690Z,19.10
2022-09-07T03:53:48.981Z,17.90
2022-09-07T03:54:23.004Z,16.50
2022-09-07T03:54:56.267Z,17.70
2022-09-07T03:55:29.351Z,18.60
2022-09-07T03:56:05.246Z,20.40
2022-09-07T03:56:38.873Z,18.20
2022-09-07T03:57:12.357Z,20.00
2022-09-07T03:57:45.564Z,15.90
2022-09-07T03:58:18.756Z,16.70
2022-09-07T03:58:53.907Z,17.80
2022-09-07T03:59:27.393Z,16.70
2022-09-07T04:00:00.697Z,19.00
2022-09-07T04:00:34.196Z,17.90
2022-09-07T04:01:10.493Z,19.20
2022-09-07T04:01:43.686Z,18.90
2022-09-07T04:02:17.470Z,15.20
2022-09-07T04:02:50.851Z,19.10
2022-09-07T04:03:24.356Z,18.10
2022-09-07T04:04:02.151Z,18.00
2022-09-07T04:04:35.596Z,17.90
2022-09-07T04:05:09.257Z,20.60
2022-09-07T04:05:42.699Z,21.80
2022-09-07T04:06:16.850Z,20.00
2022-09-07T04:06:50.693Z,18.60
2022-09-07T04:07:24.028Z,19.90
2022-09-07T04:07:57.244Z,18.10
2022-09-07T04:08:33.312Z,20.60
2022-09-07T04:09:08.920Z,17.90
2022-09-07T04:09:42.353Z,17.90
2022-09-07T04:10:15.570Z,17.80
2022-09-07T04:10:48.600Z,22.80
2022-09-07T04:11:21.707Z,21.30
2022-09-07T04:11:55.006Z,19.30
2022-09-07T04:12:28.467Z,18.50
2022-09-07T04:13:01.665Z,18.80
2022-09-07T04:13:36.472Z,20.00
2022-09-07T04:14:11.744Z,14.30
2022-09-07T04:14:45.124Z,18.50
2022-09-07T04:15:18.845Z,17.20
2022-09-07T04:15:53.975Z,15.60
2022-09-07T04:16:28.782Z,17.70
2022-09-07T04:17:02.309Z,23.10
2022-09-07T04:17:35.809Z,16.00
2022-09-07T04:18:08.947Z,16.60
2022-09-07T04:18:42.169Z,17.80
2022-09-07T04:19:15.302Z,14.90
2022-09-07T04:19:48.585Z,15.00
2022-09-07T04:20:21.770Z,23.00
2022-09-07T04:20:59.087Z,19.40
2022-09-07T04:21:33.640Z,19.60
2022-09-07T04:22:06.885Z,18.00
2022-09-07T04:22:40.313Z,18.00
2022-09-07T04:23:13.760Z,18.90
2022-09-07T04:23:46.961Z,18.00
2022-09-07T04:24:20.200Z,17.00
2022-09-07T04:24:53.719Z,22.80
2022-09-07T04:25:27.244Z,25.30
2022-09-07T04:26:00.630Z,21.50
2022-09-07T04:26:36.625Z,20.50
2022-09-07T04:27:09.905Z,20.50
2022-09-07T04:27:43.361Z,20.80
2022-09-07T04:28:18.097Z,20.50
2022-09-07T04:28:51.629Z,20.40
2022-09-07T04:29:24.856Z,22.40
2022-09-07T04:29:58.115Z,20.90
2022-09-07T04:30:35.439Z,21.70
2022-09-07T04:31:08.996Z,19.40
2022-09-07T04:31:42.306Z,17.30
2022-09-07T04:32:16.081Z,17.30
2022-09-07T04:32:49.665Z,21.50
2022-09-07T04:33:23.232Z,15.60
2022-09-07T04:33:57.061Z,19.60
2022-09-07T04:34:30.358Z,14.90
2022-09-07T04:35:04.542Z,19.60
2022-09-07T04:35:39.401Z,18.00
2022-09-07T04:36:12.984Z,17.10
2022-09-07T04:36:46.498Z,20.10
2022-09-07T04:37:19.820Z,18.20
2022-09-07T04:37:52.836Z,13.80
2022-09-07T04:38:26.001Z,17.50
2022-09-07T04:39:01.599Z,20.50
2022-09-07T04:39:35.721Z,19.90
2022-09-07T04:40:09.600Z,17.40
2022-09-07T04:40:44.188Z,18.30
2022-09-07T04:41:18.962Z,20.90
2022-09-07T04:41:52.125Z,17.70
2022-09-07T04:42:25.380Z,20.10
2022-09-07T04:42:59.271Z,17.20
2022-09-07T04:43:33.042Z,21.70
2022-09-07T04:44:06.334Z,19.80
2022-09-07T04:44:39.429Z,21.90
2022-09-07T04:45:12.650Z,17.90
2022-09-07T04:45:45.846Z,18.70
2022-09-07T04:46:27.677Z,21.80
2022-09-07T04:47:01.019Z,18.30
2022-09-07T04:47:34.082Z,17.30
2022-09-07T04:48:07.605Z,23.10
2022-09-07T04:48:40.965Z,20.10
2022-09-07T04:49:14.338Z,16.10
2022-09-07T04:49:53.706Z,16.30
2022-09-07T04:50:26.932Z,21.40
2022-09-07T04:51:11.149Z,19.00
2022-09-07T04:51:44.692Z,21.50
2022-09-07T04:52:17.990Z,22.40
2022-09-07T04:52:51.163Z,17.10
2022-09-07T04:53:24.404Z,16.40
2022-09-07T04:53:59.888Z,19.90
2022-09-07T04:54:33.149Z,20.80
2022-09-07T04:55:07.107Z,21.40
2022-09-07T04:55:40.470Z,21.20
2022-09-07T04:56:16.953Z,20.90
2022-09-07T04:56:50.517Z,18.00
2022-09-07T04:57:26.171Z,20.90
2022-09-07T04:57:59.430Z,25.10
2022-09-07T04:58:32.694Z,20.20
2022-09-07T04:59:06.047Z,20.90
2022-09-07T04:59:39.181Z,25.90
2022-09-07T05:00:12.822Z,20.90
2022-09-07T05:00:46.223Z,21.30
2022-09-07T05:01:23.410Z,17.50
2022-09-07T05:01:56.556Z,20.70
2022-09-07T05:02:29.711Z,21.30
2022-09-07T05:03:02.938Z,19.90
2022-09-07T05:03:38.430Z,19.90
2022-09-07T05:04:11.617Z,20.00
2022-09-07T05:04:44.670Z,23.20
2022-09-07T05:05:17.918Z,17.50
2022-09-07T05:05:51.039Z,20.30
2022-09-07T05:06:24.373Z,24.40
2022-09-07T05:06:57.453Z,21.50
2022-09-07T05:07:30.792Z,22.30
2022-09-07T05:08:04.627Z,19.60
2022-09-07T05:08:41.771Z,18.80
2022-09-07T05:09:14.973Z,23.40
2022-09-07T05:09:48.549Z,22.40
2022-09-07T05:10:21.741Z,23.10
2022-09-07T05:10:56.112Z,21.80
2022-09-07T05:11:30.107Z,22.40
2022-09-07T05:12:03.801Z,24.40
2022-09-07T05:12:37.095Z,24.00
2022-09-07T05:13:10.174Z,23.50
2022-09-07T05:13:43.557Z,22.60
2022-09-07T05:14:16.858Z,23.20
2022-09-07T05:14:50.487Z,25.00
2022-09-07T05:15:23.759Z,23.90
2022-09-07T05:15:57.094Z,19.00
2022-09-07T05:16:31.758Z,21.30
2022-09-07T05:17:05.268Z,23.90
2022-09-07T05:17:38.420Z,19.80
2022-09-07T05:18:13.293Z,22.90
2022-09-07T05:18:54.452Z,18.40
2022-09-07T05:19:28.262Z,24.40
2022-09-07T05:20:01.598Z,24.00
2022-09-07T05:20:34.888Z,18.00
2022-09-07T05:21:17.135Z,20.90
2022-09-07T05:21:50.251Z,25.30
2022-09-07T05:22:25.495Z,21.80
2022-09-07T05:23:01.647Z,19.90
2022-09-07T05:23:34.956Z,18.00
2022-09-07T05:24:08.304Z,20.80
2022-09-07T05:24:41.536Z,18.10
2022-09-07T05:25:15.419Z,19.40
2022-09-07T05:25:49.400Z,19.60
2022-09-07T05:26:25.029Z,17.70
2022-09-07T05:26:59.900Z,20.30
2022-09-07T05:27:33.087Z,18.30
2022-09-07T05:28:06.196Z,18.20
2022-09-07T05:28:39.492Z,20.00
2022-09-07T05:30:06.995Z,17.90
2022-09-07T05:31:34.547Z,19.70
2022-09-07T05:32:07.994Z,20.40
2022-09-07T05:32:45.507Z,18.00
2022-09-07T05:33:18.649Z,19.30
2022-09-07T05:34:49.667Z,20.20
2022-09-07T05:35:24.461Z,18.50
2022-09-07T05:35:59.849Z,20.30
2022-09-07T05:36:35.948Z,20.00
2022-09-07T05:37:10.780Z,19.00
2022-09-07T05:37:43.936Z,20.70
2022-09-07T05:38:17.189Z,26.20
2022-09-07T05:38:50.339Z,18.60
2022-09-07T05:39:24.302Z,21.70
2022-09-07T05:39:57.598Z,20.30
2022-09-07T05:40:35.126Z,25.10
2022-09-07T05:41:15.803Z,23.90
2022-09-07T05:41:48.973Z,18.70
2022-09-07T05:42:22.582Z,18.90
2022-09-07T05:42:55.959Z,19.40
2022-09-07T05:43:31.273Z,20.20
2022-09-07T05:44:59.927Z,19.30
2022-09-07T05:45:33.250Z,21.20
2022-09-07T05:46:06.853Z,20.10
2022-09-07T05:46:40.505Z,17.90
2022-09-07T05:47:14.179Z,19.70
2022-09-07T05:47:50.950Z,19.20
2022-09-07T05:48:24.224Z,16.00
2022-09-07T05:48:57.491Z,16.80
2022-09-07T05:49:30.950Z,15.40
2022-09-07T05:50:06.159Z,17.60
2022-09-07T05:50:39.251Z,20.50
2022-09-07T05:51:13.741Z,20.90
2022-09-07T05:51:47.296Z,19.80
2022-09-07T05:52:20.978Z,18.70
2022-09-07T05:52:54.212Z,16.70
2022-09-07T05:53:27.956Z,17.50
2022-09-07T05:54:01.406Z,27.80
2022-09-07T05:54:35.158Z,16.50
2022-09-07T05:55:28.898Z,23.40
2022-09-07T05:56:07.043Z,20.70
2022-09-07T05:56:40.524Z,19.30
2022-09-07T05:57:14.247Z,23.10
2022-09-07T05:57:47.326Z,20.20
2022-09-07T05:58:20.615Z,21.50
2022-09-07T05:58:53.767Z,20.60
2022-09-07T05:59:26.817Z,16.70
2022-09-07T06:00:00.038Z,21.10
2022-09-07T06:00:34.162Z,18.50
2022-09-07T06:01:13.223Z,18.40
2022-09-07T06:01:46.916Z,18.70
2022-09-07T06:02:20.593Z,17.90
2022-09-07T06:02:53.995Z,16.70
2022-09-07T06:03:27.399Z,17.60
2022-09-07T06:04:00.796Z,17.20
2022-09-07T06:04:34.161Z,17.70
2022-09-07T06:05:08.746Z,17.10
2022-09-07T06:05:41.895Z,14.50
2022-09-07T06:06:19.235Z,18.60
2022-09-07T06:07:20.114Z,15.80
2022-09-07T06:07:48.813Z,15.70
2022-09-07T06:08:22.075Z,17.10
2022-09-07T06:08:55.322Z,15.80
2022-09-07T06:09:30.488Z,14.90
2022-09-07T06:10:57.863Z,17.10
2022-09-07T06:11:31.117Z,18.30
2022-09-07T06:12:05.793Z,16.10
2022-09-07T06:12:39.148Z,14.40
2022-09-07T06:13:12.382Z,21.60
2022-09-07T06:13:45.959Z,17.90
2022-09-07T06:14:19.154Z,14.90
2022-09-07T06:14:52.397Z,18.50
2022-09-07T06:15:25.474Z,16.40
2022-09-07T06:16:02.627Z,19.10
2022-09-07T06:16:35.915Z,16.20
2022-09-07T06:17:09.159Z,19.80
2022-09-07T06:17:42.434Z,22.60
2022-09-07T06:18:15.617Z,14.10
2022-09-07T06:18:50.456Z,16.90
2022-09-07T06:19:23.717Z,15.50
2022-09-07T06:19:57.564Z,13.50
2022-09-07T06:20:31.497Z,16.40
2022-09-07T06:21:19.097Z,15.80
2022-09-07T06:21:52.428Z,15.80
2022-09-07T06:22:30.128Z,14.70
2022-09-07T06:23:04.035Z,12.80
2022-09-07T06:23:39.422Z,12.50
2022-09-07T06:24:12.599Z,15.10
2022-09-07T06:24:45.747Z,13.20
2022-09-07T06:25:19.217Z,14.60
2022-09-07T06:25:52.562Z,16.50
2022-09-07T06:26:25.716Z,12.70
2022-09-07T06:26:59.168Z,12.50
2022-09-07T06:27:32.255Z,14.20
2022-09-07T06:28:05.383Z,15.00
2022-09-07T06:28:41.536Z,16.70
2022-09-07T06:29:15.050Z,16.40
2022-09-07T06:29:48.236Z,19.60
2022-09-07T06:30:21.628Z,13.90
2022-09-07T06:30:59.652Z,13.20
2022-09-07T06:31:33.242Z,13.90
2022-09-07T06:32:59.698Z,12.70
2022-09-07T06:33:33.067Z,13.60
2022-09-07T06:34:06.429Z,14.80
2022-09-07T06:34:39.569Z,12.70
2022-09-07T06:35:13.511Z,11.60
2022-09-07T06:36:02.320Z,13.50
2022-09-07T06:36:35.450Z,13.20
2022-09-07T06:37:08.650Z,14.60
2022-09-07T06:37:42.751Z,12.30
2022-09-07T06:38:16.127Z,13.10
2022-09-07T06:38:50.568Z,15.70
2022-09-07T06:39:23.791Z,14.30
2022-09-07T06:39:57.161Z,16.20
2022-09-07T06:40:30.367Z,14.20
2022-09-07T06:41:59.656Z,13.40
2022-09-07T06:42:32.997Z,11.60
2022-09-07T06:43:06.223Z,10.70
2022-09-07T06:43:44.125Z,15.40
2022-09-07T06:44:19.590Z,15.80
2022-09-07T06:44:53.336Z,14.80
2022-09-07T06:45:28.688Z,12.40
2022-09-07T06:47:04.882Z,11.50
2022-09-07T06:47:39.235Z,15.50
2022-09-07T06:48:12.634Z,12.90
2022-09-07T06:48:45.807Z,10.80
2022-09-07T06:49:19.066Z,12.90
2022-09-07T06:49:52.247Z,12.30
2022-09-07T06:50:28.116Z,12.20
2022-09-07T06:51:01.977Z,14.20
2022-09-07T06:51:35.675Z,15.40
2022-09-07T06:52:08.961Z,17.00
2022-09-07T06:53:39.511Z,10.70
2022-09-07T06:55:08.986Z,14.20
2022-09-07T06:55:45.586Z,18.30
2022-09-07T06:56:19.746Z,12.80
2022-09-07T06:56:52.912Z,9.90
2022-09-07T06:57:27.469Z,10.70
2022-09-07T06:58:00.762Z,11.80
2022-09-07T06:58:37.011Z,12.40
2022-09-07T06:59:12.579Z,13.80
2022-09-07T06:59:45.809Z,10.80
2022-09-07T07:00:19.177Z,15.30
2022-09-07T07:00:53.006Z,11.20
2022-09-07T07:01:27.237Z,9.40
2022-09-07T07:02:00.648Z,12.80
2022-09-07T07:02:34.122Z,14.00
2022-09-07T07:03:07.264Z,13.40
2022-09-07T07:03:41.044Z,13.20
2022-09-07T07:04:14.500Z,14.70
2022-09-07T07:04:47.685Z,12.10
2022-09-07T07:05:21.118Z,10.80
2022-09-07T07:05:57.334Z,12.60
2022-09-07T07:06:35.310Z,10.50
2022-09-07T07:07:14.537Z,12.10
2022-09-07T07:07:47.770Z,11.50
2022-09-07T07:08:23.097Z,12.00
2022-09-07T07:08:56.261Z,11.50
2022-09-07T07:09:29.561Z,13.40
2022-09-07T07:10:02.794Z,13.60
2022-09-07T07:10:39.593Z,10.80
2022-09-07T07:11:16.242Z,16.20
2022-09-07T07:11:49.614Z,11.30
2022-09-07T07:12:58.582Z,14.40
2022-09-07T07:13:32.284Z,14.90
2022-09-07T07:14:05.777Z,12.40
2022-09-07T07:14:44.016Z,13.70
2022-09-07T07:15:18.296Z,15.30
2022-09-07T07:15:54.048Z,11.90
2022-09-07T07:16:27.566Z,12.60
2022-09-07T07:17:00.711Z,11.30
2022-09-07T07:17:33.927Z,14.70
2022-09-07T07:18:20.367Z,16.40
2022-09-07T07:18:58.317Z,16.30
2022-09-07T07:19:31.533Z,16.30
2022-09-07T07:20:05.403Z,19.00
2022-09-07T07:20:40.286Z,15.40
2022-09-07T07:21:15.750Z,15.20
2022-09-07T07:22:10.714Z,15.90
2022-09-07T07:22:46.718Z,13.90
2022-09-07T07:23:20.661Z,12.90
2022-09-07T07:23:54.244Z,14.00
2022-09-07T07:24:27.308Z,13.00
2022-09-07T07:25:00.377Z,11.50
2022-09-07T07:25:37.276Z,13.30
2022-09-07T07:26:12.168Z,11.80
2022-09-07T07:26:48.860Z,13.70
2022-09-07T07:27:22.389Z,10.20
2022-09-07T07:27:55.573Z,10.30
2022-09-07T07:29:23.911Z,10.80
2022-09-07T07:29:58.277Z,15.60
2022-09-07T07:30:31.582Z,14.80
2022-09-07T07:31:09.474Z,10.60
2022-09-07T07:31:44.437Z,12.00
2022-09-07T07:32:17.680Z,13.20
2022-09-07T07:32:50.873Z,15.80
2022-09-07T07:33:24.816Z,10.70
2022-09-07T07:33:58.181Z,12.30
2022-09-07T07:34:31.466Z,13.60
2022-09-07T07:35:05.706Z,12.20
2022-09-07T07:35:38.800Z,15.70
2022-09-07T07:36:18.076Z,16.10
2022-09-07T07:36:51.179Z,16.50
2022-09-07T07:37:28.016Z,18.50
2022-09-07T07:40:28.979Z,11.30
2022-09-07T07:42:01.602Z,15.70
2022-09-07T07:42:40.119Z,19.20
2022-09-07T07:43:13.543Z,15.00
2022-09-07T07:43:47.579Z,14.90
2022-09-07T07:44:21.573Z,17.20
2022-09-07T07:46:26.483Z,17.10
2022-09-07T07:46:59.905Z,18.40
2022-09-07T07:47:33.314Z,14.80
2022-09-07T07:48:06.947Z,10.50
2022-09-07T07:48:40.230Z,13.60
2022-09-07T07:49:13.767Z,15.70
2022-09-07T07:49:47.198Z,12.80
2022-09-07T07:50:35.744Z,18.00
2022-09-07T07:51:12.350Z,13.80
2022-09-07T07:53:41.651Z,20.40
2022-09-07T07:54:15.651Z,14.00
2022-09-07T07:54:48.778Z,13.90
2022-09-07T07:56:15.208Z,13.30
2022-09-07T07:56:48.248Z,14.10
2022-09-07T07:57:21.497Z,15.20
2022-09-07T07:57:54.585Z,15.30
2022-09-07T07:58:28.715Z,18.80
2022-09-07T07:59:02.036Z,19.30
2022-09-07T07:59:35.527Z,18.50
2022-09-07T08:00:09.627Z,17.10
2022-09-07T08:00:58.365Z,22.40
2022-09-07T08:01:31.699Z,16.10
2022-09-07T08:02:09.191Z,20.10
2022-09-07T08:02:42.486Z,14.50
2022-09-07T08:03:15.778Z,15.80
2022-09-07T08:03:49.360Z,18.20
2022-09-07T08:04:23.406Z,17.40
2022-09-07T08:04:56.626Z,16.00
2022-09-07T08:05:29.727Z,15.00
2022-09-07T08:06:11.780Z,13.00
2022-09-07T08:06:44.921Z,12.30
2022-09-07T08:07:18.053Z,15.70
2022-09-07T08:07:51.250Z,20.50
2022-09-07T08:08:24.450Z,14.30
2022-09-07T08:08:57.580Z,14.00
2022-09-07T08:09:30.745Z,15.10
2022-09-07T08:10:04.030Z,11.00
2022-09-07T08:10:37.309Z,12.60
2022-09-07T08:11:19.358Z,15.10
2022-09-07T08:11:52.656Z,10.50
2022-09-07T08:12:29.704Z,17.20
2022-09-07T08:13:03.168Z,11.20